sensor_id;sensor_type;location;lat;lon;timestamp;temperature;humidity
15638;DHT22;26604;53.596;10.042;2023-06-10T00:01:44;13.30;99.90
15638;DHT22;26604;53.596;10.042;2023-06-10T00:04:13;13.20;99.90
15638;DHT22;26604;53.596;10.042;2023-06-10T00:06:40;13.30;99.90
15638;DHT22;26604;53.596;10.042;2023-06-10T00:09:07;13.20;99.90
15638;DHT22;26604;53.596;10.042;2023-06-10T00:11:37;13.20;99.90
15638;DHT22;26604;53.596;10.042;2023-06-10T00:14:04;13.20;99.90
15638;DHT22;26604;53.596;10.042;2023-06-10T00:16:31;13.20;99.90
15638;DHT22;26604;53.596;10.042;2023-06-10T00:18:59;13.10;99.90
15638;DHT22;26604;53.596;10.042;2023-06-10T00:21:26;13.10;99.90
15638;DHT22;26604;53.596;10.042;2023-06-10T00:23:53;13.10;99.90
15638;DHT22;26604;53.596;10.042;2023-06-10T00:26:21;13.10;99.90
15638;DHT22;26604;53.596;10.042;2023-06-10T00:28:49;13.00;99.90
15638;DHT22;26604;53.596;10.042;2023-06-10T00:31:16;13.00;99.90
15638;DHT22;26604;53.596;10.042;2023-06-10T00:33:43;12.90;99.90
15638;DHT22;26604;53.596;10.042;2023-06-10T00:36:10;12.90;99.90
15638;DHT22;26604;53.596;10.042;2023-06-10T00:38:37;12.90;99.90
15638;DHT22;26604;53.596;10.042;2023-06-10T00:41:04;12.90;99.90
15638;DHT22;26604;53.596;10.042;2023-06-10T00:43:30;12.90;99.90
15638;DHT22;26604;53.596;10.042;2023-06-10T00:45:59;12.90;99.90
15638;DHT22;26604;53.596;10.042;2023-06-10T00:48:27;12.80;99.90
15638;DHT22;26604;53.596;10.042;2023-06-10T00:50:54;12.80;99.90
15638;DHT22;26604;53.596;10.042;2023-06-10T00:53:22;12.80;99.90
15638;DHT22;26604;53.596;10.042;2023-06-10T00:55:50;12.80;99.90
15638;DHT22;26604;53.596;10.042;2023-06-10T00:58:17;12.70;99.90
15638;DHT22;26604;53.596;10.042;2023-06-10T01:00:45;12.60;99.90
15638;DHT22;26604;53.596;10.042;2023-06-10T01:03:13;12.60;99.90
15638;DHT22;26604;53.596;10.042;2023-06-10T01:05:43;12.60;99.90
15638;DHT22;26604;53.596;10.042;2023-06-10T01:08:16;12.60;99.90
15638;DHT22;26604;53.596;10.042;2023-06-10T01:10:51;12.60;99.90
15638;DHT22;26604;53.596;10.042;2023-06-10T01:13:20;12.50;99.90
15638;DHT22;26604;53.596;10.042;2023-06-10T01:15:50;12.40;99.90
15638;DHT22;26604;53.596;10.042;2023-06-10T01:18:19;12.40;99.90
15638;DHT22;26604;53.596;10.042;2023-06-10T01:20:47;12.40;99.90
15638;DHT22;26604;53.596;10.042;2023-06-10T01:23:16;12.30;99.90
15638;DHT22;26604;53.596;10.042;2023-06-10T01:25:47;12.30;99.90
15638;DHT22;26604;53.596;10.042;2023-06-10T01:28:18;12.20;99.90
15638;DHT22;26604;53.596;10.042;2023-06-10T01:30:53;12.10;99.90
15638;DHT22;26604;53.596;10.042;2023-06-10T01:33:26;12.10;99.90
15638;DHT22;26604;53.596;10.042;2023-06-10T01:35:55;12.00;99.90
15638;DHT22;26604;53.596;10.042;2023-06-10T01:38:25;12.10;99.90
15638;DHT22;26604;53.596;10.042;2023-06-10T01:40:53;12.10;99.90
15638;DHT22;26604;53.596;10.042;2023-06-10T01:43:22;12.10;99.90
15638;DHT22;26604;53.596;10.042;2023-06-10T01:45:49;12.10;99.90
15638;DHT22;26604;53.596;10.042;2023-06-10T01:48:16;12.20;99.90
15638;DHT22;26604;53.596;10.042;2023-06-10T01:50:43;12.20;99.90
15638;DHT22;26604;53.596;10.042;2023-06-10T01:53:10;12.10;99.90
15638;DHT22;26604;53.596;10.042;2023-06-10T01:55:38;12.20;99.90
15638;DHT22;26604;53.596;10.042;2023-06-10T01:58:05;12.10;99.90
15638;DHT22;26604;53.596;10.042;2023-06-10T02:00:32;12.10;99.90
15638;DHT22;26604;53.596;10.042;2023-06-10T02:02:59;12.10;99.90
15638;DHT22;26604;53.596;10.042;2023-06-10T02:05:25;12.10;99.90
15638;DHT22;26604;53.596;10.042;2023-06-10T02:07:52;12.10;99.90
15638;DHT22;26604;53.596;10.042;2023-06-10T02:10:19;12.00;99.90
15638;DHT22;26604;53.596;10.042;2023-06-10T02:12:47;12.00;99.90
15638;DHT22;26604;53.596;10.042;2023-06-10T02:15:14;12.00;99.90
15638;DHT22;26604;53.596;10.042;2023-06-10T02:17:41;12.00;99.90
15638;DHT22;26604;53.596;10.042;2023-06-10T02:20:11;12.00;99.90
15638;DHT22;26604;53.596;10.042;2023-06-10T02:22:39;12.00;99.90
15638;DHT22;26604;53.596;10.042;2023-06-10T02:25:06;12.00;99.90
15638;DHT22;26604;53.596;10.042;2023-06-10T02:27:33;11.90;99.90
15638;DHT22;26604;53.596;10.042;2023-06-10T02:30:02;11.90;99.90
15638;DHT22;26604;53.596;10.042;2023-06-10T02:32:29;11.90;99.90
15638;DHT22;26604;53.596;10.042;2023-06-10T02:34:56;11.90;99.90
15638;DHT22;26604;53.596;10.042;2023-06-10T02:37:23;11.80;99.90
15638;DHT22;26604;53.596;10.042;2023-06-10T02:39:50;11.80;99.90
15638;DHT22;26604;53.596;10.042;2023-06-10T02:42:18;11.80;99.90
15638;DHT22;26604;53.596;10.042;2023-06-10T02:44:45;11.80;99.90
15638;DHT22;26604;53.596;10.042;2023-06-10T02:47:14;11.80;99.90
15638;DHT22;26604;53.596;10.042;2023-06-10T02:49:40;11.80;99.90
15638;DHT22;26604;53.596;10.042;2023-06-10T02:52:07;11.80;99.90
15638;DHT22;26604;53.596;10.042;2023-06-10T02:54:36;11.60;99.90
15638;DHT22;26604;53.596;10.042;2023-06-10T02:57:04;11.70;99.90
15638;DHT22;26604;53.596;10.042;2023-06-10T02:59:31;11.70;99.90
15638;DHT22;26604;53.596;10.042;2023-06-10T03:01:57;11.70;99.90
15638;DHT22;26604;53.596;10.042;2023-06-10T03:04:28;11.70;99.90
15638;DHT22;26604;53.596;10.042;2023-06-10T03:06:56;11.70;99.90
15638;DHT22;26604;53.596;10.042;2023-06-10T03:09:23;11.70;99.90
15638;DHT22;26604;53.596;10.042;2023-06-10T03:11:50;11.70;99.90
15638;DHT22;26604;53.596;10.042;2023-06-10T03:14:16;11.80;99.90
15638;DHT22;26604;53.596;10.042;2023-06-10T03:16:43;11.80;99.90
15638;DHT22;26604;53.596;10.042;2023-06-10T03:19:11;11.80;99.90
15638;DHT22;26604;53.596;10.042;2023-06-10T03:21:39;11.80;99.90
15638;DHT22;26604;53.596;10.042;2023-06-10T03:24:07;11.90;99.90
15638;DHT22;26604;53.596;10.042;2023-06-10T03:26:34;12.00;99.90
15638;DHT22;26604;53.596;10.042;2023-06-10T03:29:00;12.00;99.90
15638;DHT22;26604;53.596;10.042;2023-06-10T03:31:27;12.00;99.90
15638;DHT22;26604;53.596;10.042;2023-06-10T03:33:55;12.00;99.90
15638;DHT22;26604;53.596;10.042;2023-06-10T03:36:22;12.00;99.90
15638;DHT22;26604;53.596;10.042;2023-06-10T03:38:50;12.10;99.90
15638;DHT22;26604;53.596;10.042;2023-06-10T03:41:17;12.20;99.90
15638;DHT22;26604;53.596;10.042;2023-06-10T03:43:44;12.10;99.90
15638;DHT22;26604;53.596;10.042;2023-06-10T03:46:11;12.20;99.90
15638;DHT22;26604;53.596;10.042;2023-06-10T03:48:38;12.20;99.90
15638;DHT22;26604;53.596;10.042;2023-06-10T03:51:05;12.30;99.90
15638;DHT22;26604;53.596;10.042;2023-06-10T03:53:32;12.30;99.90
15638;DHT22;26604;53.596;10.042;2023-06-10T03:56:00;12.30;99.90
15638;DHT22;26604;53.596;10.042;2023-06-10T03:58:27;12.30;99.90
15638;DHT22;26604;53.596;10.042;2023-06-10T04:00:54;12.30;99.90
15638;DHT22;26604;53.596;10.042;2023-06-10T04:03:20;12.30;99.90
15638;DHT22;26604;53.596;10.042;2023-06-10T04:05:48;12.30;99.90
15638;DHT22;26604;53.596;10.042;2023-06-10T04:08:15;12.40;99.90
15638;DHT22;26604;53.596;10.042;2023-06-10T04:10:42;12.40;99.90
15638;DHT22;26604;53.596;10.042;2023-06-10T04:13:10;12.50;99.90
15638;DHT22;26604;53.596;10.042;2023-06-10T04:15:37;12.50;99.90
15638;DHT22;26604;53.596;10.042;2023-06-10T04:18:04;12.50;99.90
15638;DHT22;26604;53.596;10.042;2023-06-10T04:20:31;12.60;99.90
15638;DHT22;26604;53.596;10.042;2023-06-10T04:22:58;12.70;99.90
15638;DHT22;26604;53.596;10.042;2023-06-10T04:25:26;12.70;99.90
15638;DHT22;26604;53.596;10.042;2023-06-10T04:27:54;12.90;99.90
15638;DHT22;26604;53.596;10.042;2023-06-10T04:30:22;12.90;99.90
15638;DHT22;26604;53.596;10.042;2023-06-10T04:32:49;13.00;99.90
15638;DHT22;26604;53.596;10.042;2023-06-10T04:35:16;13.10;99.90
15638;DHT22;26604;53.596;10.042;2023-06-10T04:37:43;13.30;99.90
15638;DHT22;26604;53.596;10.042;2023-06-10T04:40:10;13.30;99.90
15638;DHT22;26604;53.596;10.042;2023-06-10T04:42:37;13.40;99.90
15638;DHT22;26604;53.596;10.042;2023-06-10T04:45:05;13.50;99.90
15638;DHT22;26604;53.596;10.042;2023-06-10T04:47:33;13.60;99.90
15638;DHT22;26604;53.596;10.042;2023-06-10T04:50:00;13.70;99.90
15638;DHT22;26604;53.596;10.042;2023-06-10T04:52:28;13.90;99.90
15638;DHT22;26604;53.596;10.042;2023-06-10T04:54:55;15.30;99.90
15638;DHT22;26604;53.596;10.042;2023-06-10T04:57:23;17.20;99.90
15638;DHT22;26604;53.596;10.042;2023-06-10T04:59:53;19.10;99.90
15638;DHT22;26604;53.596;10.042;2023-06-10T05:02:19;20.50;99.90
15638;DHT22;26604;53.596;10.042;2023-06-10T05:04:48;21.60;99.90
15638;DHT22;26604;53.596;10.042;2023-06-10T05:07:14;21.30;99.90
15638;DHT22;26604;53.596;10.042;2023-06-10T05:09:41;20.20;99.90
15638;DHT22;26604;53.596;10.042;2023-06-10T05:12:09;19.30;99.90
15638;DHT22;26604;53.596;10.042;2023-06-10T05:14:35;18.60;99.90
15638;DHT22;26604;53.596;10.042;2023-06-10T05:17:03;18.60;99.90
15638;DHT22;26604;53.596;10.042;2023-06-10T05:19:31;18.70;99.90
15638;DHT22;26604;53.596;10.042;2023-06-10T05:21:59;19.10;99.90
15638;DHT22;26604;53.596;10.042;2023-06-10T05:24:26;18.60;99.90
15638;DHT22;26604;53.596;10.042;2023-06-10T05:26:53;18.00;99.90
15638;DHT22;26604;53.596;10.042;2023-06-10T05:29:20;17.40;99.90
15638;DHT22;26604;53.596;10.042;2023-06-10T05:31:47;16.90;99.90
15638;DHT22;26604;53.596;10.042;2023-06-10T05:34:13;16.60;99.90
15638;DHT22;26604;53.596;10.042;2023-06-10T05:36:40;16.40;99.90
15638;DHT22;26604;53.596;10.042;2023-06-10T05:39:09;16.20;99.90
15638;DHT22;26604;53.596;10.042;2023-06-10T05:41:36;16.00;99.90
15638;DHT22;26604;53.596;10.042;2023-06-10T05:44:03;16.00;99.90
15638;DHT22;26604;53.596;10.042;2023-06-10T05:46:31;15.90;99.90
15638;DHT22;26604;53.596;10.042;2023-06-10T05:48:57;15.80;99.90
15638;DHT22;26604;53.596;10.042;2023-06-10T05:51:24;15.90;99.90
15638;DHT22;26604;53.596;10.042;2023-06-10T05:53:53;15.90;99.90
15638;DHT22;26604;53.596;10.042;2023-06-10T05:56:21;15.90;99.90
15638;DHT22;26604;53.596;10.042;2023-06-10T05:58:48;15.90;99.90
15638;DHT22;26604;53.596;10.042;2023-06-10T06:01:15;16.00;99.90
15638;DHT22;26604;53.596;10.042;2023-06-10T06:03:41;16.00;99.90
15638;DHT22;26604;53.596;10.042;2023-06-10T06:06:08;16.00;99.90
15638;DHT22;26604;53.596;10.042;2023-06-10T06:08:35;16.10;99.90
15638;DHT22;26604;53.596;10.042;2023-06-10T06:11:02;16.10;99.90
15638;DHT22;26604;53.596;10.042;2023-06-10T06:13:30;16.20;99.90
15638;DHT22;26604;53.596;10.042;2023-06-10T06:15:57;16.20;99.90
15638;DHT22;26604;53.596;10.042;2023-06-10T06:18:24;16.30;99.90
15638;DHT22;26604;53.596;10.042;2023-06-10T06:20:51;16.30;99.90
15638;DHT22;26604;53.596;10.042;2023-06-10T06:23:18;16.40;99.90
15638;DHT22;26604;53.596;10.042;2023-06-10T06:25:44;16.50;99.90
15638;DHT22;26604;53.596;10.042;2023-06-10T06:28:11;16.60;99.90
15638;DHT22;26604;53.596;10.042;2023-06-10T06:30:39;16.60;99.90
15638;DHT22;26604;53.596;10.042;2023-06-10T06:33:06;16.70;99.90
15638;DHT22;26604;53.596;10.042;2023-06-10T06:35:34;16.70;99.90
15638;DHT22;26604;53.596;10.042;2023-06-10T06:38:00;16.80;99.90
15638;DHT22;26604;53.596;10.042;2023-06-10T06:40:29;16.90;99.90
15638;DHT22;26604;53.596;10.042;2023-06-10T06:42:56;16.90;99.90
15638;DHT22;26604;53.596;10.042;2023-06-10T06:45:23;17.00;99.90
15638;DHT22;26604;53.596;10.042;2023-06-10T06:47:51;17.10;99.90
15638;DHT22;26604;53.596;10.042;2023-06-10T06:50:18;17.20;99.90
15638;DHT22;26604;53.596;10.042;2023-06-10T06:52:45;17.20;99.90
15638;DHT22;26604;53.596;10.042;2023-06-10T06:55:12;17.30;99.90
15638;DHT22;26604;53.596;10.042;2023-06-10T06:57:39;17.30;99.90
15638;DHT22;26604;53.596;10.042;2023-06-10T07:00:06;17.40;99.90
15638;DHT22;26604;53.596;10.042;2023-06-10T07:02:34;17.40;99.90
15638;DHT22;26604;53.596;10.042;2023-06-10T07:05:03;17.50;99.90
15638;DHT22;26604;53.596;10.042;2023-06-10T07:07:30;17.60;99.90
15638;DHT22;26604;53.596;10.042;2023-06-10T07:09:57;17.70;99.90
15638;DHT22;26604;53.596;10.042;2023-06-10T07:12:24;17.80;99.90
15638;DHT22;26604;53.596;10.042;2023-06-10T07:14:51;17.90;99.90
15638;DHT22;26604;53.596;10.042;2023-06-10T07:17:18;17.90;99.90
15638;DHT22;26604;53.596;10.042;2023-06-10T07:19:45;18.00;99.90
15638;DHT22;26604;53.596;10.042;2023-06-10T07:22:14;18.20;99.90
15638;DHT22;26604;53.596;10.042;2023-06-10T07:24:41;18.30;99.90
15638;DHT22;26604;53.596;10.042;2023-06-10T07:27:08;18.30;99.90
15638;DHT22;26604;53.596;10.042;2023-06-10T07:29:35;18.40;99.90
15638;DHT22;26604;53.596;10.042;2023-06-10T07:32:03;18.40;99.90
15638;DHT22;26604;53.596;10.042;2023-06-10T07:34:30;18.50;99.90
15638;DHT22;26604;53.596;10.042;2023-06-10T07:36:57;18.60;99.90
15638;DHT22;26604;53.596;10.042;2023-06-10T07:39:25;18.60;99.90
15638;DHT22;26604;53.596;10.042;2023-06-10T07:41:52;18.70;99.90
15638;DHT22;26604;53.596;10.042;2023-06-10T07:44:22;18.70;99.90
15638;DHT22;26604;53.596;10.042;2023-06-10T07:46:49;18.80;99.90
15638;DHT22;26604;53.596;10.042;2023-06-10T07:49:16;18.90;99.90
15638;DHT22;26604;53.596;10.042;2023-06-10T07:51:43;19.00;99.90
15638;DHT22;26604;53.596;10.042;2023-06-10T07:54:10;19.10;99.90
15638;DHT22;26604;53.596;10.042;2023-06-10T07:56:39;19.10;99.90
15638;DHT22;26604;53.596;10.042;2023-06-10T07:59:06;19.30;99.90
15638;DHT22;26604;53.596;10.042;2023-06-10T08:01:33;19.30;99.90
15638;DHT22;26604;53.596;10.042;2023-06-10T08:04:01;19.40;99.90
15638;DHT22;26604;53.596;10.042;2023-06-10T08:06:28;19.50;99.90
15638;DHT22;26604;53.596;10.042;2023-06-10T08:08:55;19.60;99.90
15638;DHT22;26604;53.596;10.042;2023-06-10T08:11:22;19.60;99.90
15638;DHT22;26604;53.596;10.042;2023-06-10T08:13:50;19.60;99.90
15638;DHT22;26604;53.596;10.042;2023-06-10T08:16:17;19.70;99.90
15638;DHT22;26604;53.596;10.042;2023-06-10T08:18:44;19.80;99.90
15638;DHT22;26604;53.596;10.042;2023-06-10T08:21:11;19.90;99.90
15638;DHT22;26604;53.596;10.042;2023-06-10T08:23:37;19.90;99.90
15638;DHT22;26604;53.596;10.042;2023-06-10T08:26:04;20.00;99.90
15638;DHT22;26604;53.596;10.042;2023-06-10T08:28:31;20.00;99.90
15638;DHT22;26604;53.596;10.042;2023-06-10T08:30:59;20.00;99.90
15638;DHT22;26604;53.596;10.042;2023-06-10T08:33:26;20.10;99.90
15638;DHT22;26604;53.596;10.042;2023-06-10T08:35:53;20.10;99.90
15638;DHT22;26604;53.596;10.042;2023-06-10T08:38:20;20.20;99.90
15638;DHT22;26604;53.596;10.042;2023-06-10T08:40:48;20.30;99.90
15638;DHT22;26604;53.596;10.042;2023-06-10T08:43:19;20.40;99.90
15638;DHT22;26604;53.596;10.042;2023-06-10T08:45:49;20.50;99.90
15638;DHT22;26604;53.596;10.042;2023-06-10T08:48:19;20.60;99.90
15638;DHT22;26604;53.596;10.042;2023-06-10T08:50:47;20.70;99.90
15638;DHT22;26604;53.596;10.042;2023-06-10T08:53:18;20.90;99.90
15638;DHT22;26604;53.596;10.042;2023-06-10T08:55:49;20.90;99.90
15638;DHT22;26604;53.596;10.042;2023-06-10T08:58:17;21.00;99.90
15638;DHT22;26604;53.596;10.042;2023-06-10T09:00:44;21.00;99.90
15638;DHT22;26604;53.596;10.042;2023-06-10T09:03:12;21.10;99.90
15638;DHT22;26604;53.596;10.042;2023-06-10T09:05:41;21.20;99.90
15638;DHT22;26604;53.596;10.042;2023-06-10T09:08:08;21.30;99.90
15638;DHT22;26604;53.596;10.042;2023-06-10T09:10:36;21.40;99.90
15638;DHT22;26604;53.596;10.042;2023-06-10T09:13:03;21.40;99.90
15638;DHT22;26604;53.596;10.042;2023-06-10T09:15:30;21.50;99.90
15638;DHT22;26604;53.596;10.042;2023-06-10T09:17:57;21.50;99.90
15638;DHT22;26604;53.596;10.042;2023-06-10T09:20:25;21.60;99.90
15638;DHT22;26604;53.596;10.042;2023-06-10T09:22:53;21.70;99.90
15638;DHT22;26604;53.596;10.042;2023-06-10T09:25:34;21.80;99.90
15638;DHT22;26604;53.596;10.042;2023-06-10T09:28:02;21.90;99.90
15638;DHT22;26604;53.596;10.042;2023-06-10T09:30:30;21.90;99.90
15638;DHT22;26604;53.596;10.042;2023-06-10T09:33:00;22.00;99.90
15638;DHT22;26604;53.596;10.042;2023-06-10T09:35:28;22.10;99.90
15638;DHT22;26604;53.596;10.042;2023-06-10T09:37:57;22.20;99.90
15638;DHT22;26604;53.596;10.042;2023-06-10T09:40:25;22.30;99.90
15638;DHT22;26604;53.596;10.042;2023-06-10T09:42:54;22.40;99.90
15638;DHT22;26604;53.596;10.042;2023-06-10T09:45:22;22.40;99.90
15638;DHT22;26604;53.596;10.042;2023-06-10T09:47:52;22.40;99.90
15638;DHT22;26604;53.596;10.042;2023-06-10T09:50:19;22.40;99.90
15638;DHT22;26604;53.596;10.042;2023-06-10T09:52:47;22.50;99.90
15638;DHT22;26604;53.596;10.042;2023-06-10T09:55:16;22.60;99.90
15638;DHT22;26604;53.596;10.042;2023-06-10T09:57:43;22.70;99.90
15638;DHT22;26604;53.596;10.042;2023-06-10T10:00:14;22.80;99.90
15638;DHT22;26604;53.596;10.042;2023-06-10T10:02:46;22.90;99.90
15638;DHT22;26604;53.596;10.042;2023-06-10T10:05:14;22.90;99.90
15638;DHT22;26604;53.596;10.042;2023-06-10T10:07:41;22.90;99.90
15638;DHT22;26604;53.596;10.042;2023-06-10T10:10:09;23.00;99.90
15638;DHT22;26604;53.596;10.042;2023-06-10T10:12:38;23.10;99.90
15638;DHT22;26604;53.596;10.042;2023-06-10T10:15:07;23.10;99.90
15638;DHT22;26604;53.596;10.042;2023-06-10T10:17:35;23.10;99.90
15638;DHT22;26604;53.596;10.042;2023-06-10T10:20:05;23.10;99.90
15638;DHT22;26604;53.596;10.042;2023-06-10T10:22:37;23.20;99.90
15638;DHT22;26604;53.596;10.042;2023-06-10T10:25:10;23.30;99.90
15638;DHT22;26604;53.596;10.042;2023-06-10T10:27:43;23.50;99.90
15638;DHT22;26604;53.596;10.042;2023-06-10T10:30:11;23.70;99.90
15638;DHT22;26604;53.596;10.042;2023-06-10T10:32:43;23.70;99.90
15638;DHT22;26604;53.596;10.042;2023-06-10T10:35:16;23.80;99.90
15638;DHT22;26604;53.596;10.042;2023-06-10T10:37:43;23.80;99.90
15638;DHT22;26604;53.596;10.042;2023-06-10T10:40:11;23.90;99.90
15638;DHT22;26604;53.596;10.042;2023-06-10T10:42:40;23.90;99.90
15638;DHT22;26604;53.596;10.042;2023-06-10T10:45:09;24.00;99.90
15638;DHT22;26604;53.596;10.042;2023-06-10T10:47:36;24.10;99.90
15638;DHT22;26604;53.596;10.042;2023-06-10T10:50:14;24.10;99.90
15638;DHT22;26604;53.596;10.042;2023-06-10T10:52:51;24.30;99.90
15638;DHT22;26604;53.596;10.042;2023-06-10T10:55:18;24.40;99.90
15638;DHT22;26604;53.596;10.042;2023-06-10T10:57:53;24.50;99.90
15638;DHT22;26604;53.596;10.042;2023-06-10T11:00:28;24.60;99.90
15638;DHT22;26604;53.596;10.042;2023-06-10T11:02:58;24.60;99.90
15638;DHT22;26604;53.596;10.042;2023-06-10T11:05:37;24.60;99.90
15638;DHT22;26604;53.596;10.042;2023-06-10T11:08:05;24.70;99.90
15638;DHT22;26604;53.596;10.042;2023-06-10T11:10:34;24.60;99.90
15638;DHT22;26604;53.596;10.042;2023-06-10T11:13:08;24.60;99.90
15638;DHT22;26604;53.596;10.042;2023-06-10T11:15:39;24.70;99.90
15638;DHT22;26604;53.596;10.042;2023-06-10T11:18:07;24.70;99.90
15638;DHT22;26604;53.596;10.042;2023-06-10T11:20:52;24.80;99.90
15638;DHT22;26604;53.596;10.042;2023-06-10T11:23:34;24.80;99.90
15638;DHT22;26604;53.596;10.042;2023-06-10T11:26:15;24.90;99.90
15638;DHT22;26604;53.596;10.042;2023-06-10T11:29:05;25.00;99.90
15638;DHT22;26604;53.596;10.042;2023-06-10T11:31:38;25.10;99.90
15638;DHT22;26604;53.596;10.042;2023-06-10T11:34:06;25.20;99.90
15638;DHT22;26604;53.596;10.042;2023-06-10T11:36:36;25.20;99.90
15638;DHT22;26604;53.596;10.042;2023-06-10T11:39:04;25.20;99.90
15638;DHT22;26604;53.596;10.042;2023-06-10T11:41:32;25.30;99.90
15638;DHT22;26604;53.596;10.042;2023-06-10T11:44:02;25.30;99.90
15638;DHT22;26604;53.596;10.042;2023-06-10T11:46:31;25.30;99.90
15638;DHT22;26604;53.596;10.042;2023-06-10T11:48:58;25.40;99.90
15638;DHT22;26604;53.596;10.042;2023-06-10T11:51:27;25.40;99.90
15638;DHT22;26604;53.596;10.042;2023-06-10T11:53:54;25.50;99.90
15638;DHT22;26604;53.596;10.042;2023-06-10T11:56:22;25.60;99.90
15638;DHT22;26604;53.596;10.042;2023-06-10T11:58:53;25.50;99.90
15638;DHT22;26604;53.596;10.042;2023-06-10T12:01:20;25.60;99.90
15638;DHT22;26604;53.596;10.042;2023-06-10T12:03:56;25.60;99.90
15638;DHT22;26604;53.596;10.042;2023-06-10T12:06:24;25.60;99.90
15638;DHT22;26604;53.596;10.042;2023-06-10T12:08:50;25.60;99.90
15638;DHT22;26604;53.596;10.042;2023-06-10T12:11:17;25.80;99.90
15638;DHT22;26604;53.596;10.042;2023-06-10T12:13:48;25.90;99.90
15638;DHT22;26604;53.596;10.042;2023-06-10T12:16:16;26.00;99.90
15638;DHT22;26604;53.596;10.042;2023-06-10T12:18:45;26.10;99.90
15638;DHT22;26604;53.596;10.042;2023-06-10T12:21:19;26.10;99.90
15638;DHT22;26604;53.596;10.042;2023-06-10T12:24:03;26.10;99.90
15638;DHT22;26604;53.596;10.042;2023-06-10T12:26:40;26.10;99.90
15638;DHT22;26604;53.596;10.042;2023-06-10T12:29:16;26.10;99.90
15638;DHT22;26604;53.596;10.042;2023-06-10T12:31:58;26.10;99.90
15638;DHT22;26604;53.596;10.042;2023-06-10T12:34:33;26.20;99.90
15638;DHT22;26604;53.596;10.042;2023-06-10T12:37:03;26.30;98.50
15638;DHT22;26604;53.596;10.042;2023-06-10T12:39:31;26.30;98.60
15638;DHT22;26604;53.596;10.042;2023-06-10T12:41:59;26.40;98.90
15638;DHT22;26604;53.596;10.042;2023-06-10T12:44:32;26.50;99.10
15638;DHT22;26604;53.596;10.042;2023-06-10T12:47:00;26.50;98.60
15638;DHT22;26604;53.596;10.042;2023-06-10T12:49:27;26.60;98.10
15638;DHT22;26604;53.596;10.042;2023-06-10T12:51:54;26.70;96.80
15638;DHT22;26604;53.596;10.042;2023-06-10T12:54:23;26.70;98.30
15638;DHT22;26604;53.596;10.042;2023-06-10T12:56:50;26.80;96.50
15638;DHT22;26604;53.596;10.042;2023-06-10T12:59:18;26.80;97.30
15638;DHT22;26604;53.596;10.042;2023-06-10T13:01:50;26.90;96.80
15638;DHT22;26604;53.596;10.042;2023-06-10T13:04:17;26.90;96.30
15638;DHT22;26604;53.596;10.042;2023-06-10T13:06:45;27.00;95.90
15638;DHT22;26604;53.596;10.042;2023-06-10T13:09:12;27.00;95.00
15638;DHT22;26604;53.596;10.042;2023-06-10T13:11:40;27.10;95.60
15638;DHT22;26604;53.596;10.042;2023-06-10T13:14:09;27.20;95.10
15638;DHT22;26604;53.596;10.042;2023-06-10T13:16:36;27.10;95.50
15638;DHT22;26604;53.596;10.042;2023-06-10T13:19:04;27.10;97.20
15638;DHT22;26604;53.596;10.042;2023-06-10T13:21:32;27.10;97.50
15638;DHT22;26604;53.596;10.042;2023-06-10T13:23:59;27.20;96.70
15638;DHT22;26604;53.596;10.042;2023-06-10T13:26:26;27.20;97.60
15638;DHT22;26604;53.596;10.042;2023-06-10T13:28:54;27.20;98.40
15638;DHT22;26604;53.596;10.042;2023-06-10T13:31:21;27.20;98.50
15638;DHT22;26604;53.596;10.042;2023-06-10T13:33:48;27.10;99.10
15638;DHT22;26604;53.596;10.042;2023-06-10T13:36:15;27.10;99.90
15638;DHT22;26604;53.596;10.042;2023-06-10T13:38:42;27.10;99.90
15638;DHT22;26604;53.596;10.042;2023-06-10T13:41:09;27.10;99.90
15638;DHT22;26604;53.596;10.042;2023-06-10T13:43:36;27.10;99.90
15638;DHT22;26604;53.596;10.042;2023-06-10T13:46:04;27.00;99.90
15638;DHT22;26604;53.596;10.042;2023-06-10T13:48:31;27.00;99.90
15638;DHT22;26604;53.596;10.042;2023-06-10T13:50:58;27.00;99.90
15638;DHT22;26604;53.596;10.042;2023-06-10T13:53:26;27.00;99.90
15638;DHT22;26604;53.596;10.042;2023-06-10T13:55:53;26.90;99.90
15638;DHT22;26604;53.596;10.042;2023-06-10T13:58:20;26.90;99.90
15638;DHT22;26604;53.596;10.042;2023-06-10T14:00:46;26.90;99.90
15638;DHT22;26604;53.596;10.042;2023-06-10T14:03:15;26.90;99.90
15638;DHT22;26604;53.596;10.042;2023-06-10T14:05:42;26.90;99.90
15638;DHT22;26604;53.596;10.042;2023-06-10T14:08:09;27.00;99.90
15638;DHT22;26604;53.596;10.042;2023-06-10T14:10:35;26.90;99.90
15638;DHT22;26604;53.596;10.042;2023-06-10T14:13:02;26.90;99.90
15638;DHT22;26604;53.596;10.042;2023-06-10T14:15:29;26.80;99.90
15638;DHT22;26604;53.596;10.042;2023-06-10T14:17:58;26.70;99.90
15638;DHT22;26604;53.596;10.042;2023-06-10T14:20:26;26.70;99.90
15638;DHT22;26604;53.596;10.042;2023-06-10T14:22:57;26.70;99.90
15638;DHT22;26604;53.596;10.042;2023-06-10T14:25:23;26.60;99.90
15638;DHT22;26604;53.596;10.042;2023-06-10T14:27:50;26.50;99.90
15638;DHT22;26604;53.596;10.042;2023-06-10T14:30:17;26.30;99.90
15638;DHT22;26604;53.596;10.042;2023-06-10T14:32:44;26.20;99.90
15638;DHT22;26604;53.596;10.042;2023-06-10T14:35:11;26.30;99.90
15638;DHT22;26604;53.596;10.042;2023-06-10T14:37:39;26.30;99.90
15638;DHT22;26604;53.596;10.042;2023-06-10T14:40:07;26.30;99.90
15638;DHT22;26604;53.596;10.042;2023-06-10T14:42:34;26.30;99.90
15638;DHT22;26604;53.596;10.042;2023-06-10T14:45:01;26.40;99.90
15638;DHT22;26604;53.596;10.042;2023-06-10T14:47:28;26.50;99.90
15638;DHT22;26604;53.596;10.042;2023-06-10T14:49:55;26.40;99.90
15638;DHT22;26604;53.596;10.042;2023-06-10T14:52:22;26.30;99.90
15638;DHT22;26604;53.596;10.042;2023-06-10T14:54:50;26.30;99.90
15638;DHT22;26604;53.596;10.042;2023-06-10T14:57:17;26.30;99.90
15638;DHT22;26604;53.596;10.042;2023-06-10T14:59:44;26.30;99.90
15638;DHT22;26604;53.596;10.042;2023-06-10T15:02:10;26.30;99.90
15638;DHT22;26604;53.596;10.042;2023-06-10T15:04:37;26.30;99.90
15638;DHT22;26604;53.596;10.042;2023-06-10T15:07:05;26.40;99.90
15638;DHT22;26604;53.596;10.042;2023-06-10T15:09:32;26.40;99.90
15638;DHT22;26604;53.596;10.042;2023-06-10T15:12:00;26.40;99.90
15638;DHT22;26604;53.596;10.042;2023-06-10T15:14:28;26.40;99.90
15638;DHT22;26604;53.596;10.042;2023-06-10T15:16:55;26.30;99.90
15638;DHT22;26604;53.596;10.042;2023-06-10T15:19:24;26.20;99.90
15638;DHT22;26604;53.596;10.042;2023-06-10T15:21:51;26.20;99.90